CW9114 Weather Reports


Display with metric or nautical units.
time (UTC)temp
F
wind
direction
speed
MPH
gust
MPH
rain 1hr
in
rain 24hr
in
rain mn
in
humidity
%
barometer
mb
20210624203005 67 272 0.0 0.0 0.00 0.15 0.15 85 1008.5
20210624200003 68 26 0.0 0.0 0.00 0.15 0.15 84 1008.2
20210624194503 69 309 0.0 0.0 0.00 0.15 0.15 83 1008.3
20210624191523 68 44 0.0 0.0 0.00 0.15 0.15 84 1008.2
20210624183007 68 45 0.0 0.0 0.00 0.15 0.15 83 1007.8
20210624180003 69 54 0.0 0.0 0.00 0.15 0.15 82 1007.5
20210624174518 70 61 0.0 1.0 0.00 0.15 0.15 79 1007.4
20210624171514 73 65 0.0 0.0 0.00 0.15 0.15 78 1007.0
20210624163003 75 76 0.0 3.0 0.00 0.15 0.15 75 1006.8
20210624160003 78 46 0.0 0.0 0.00 0.15 0.15 77 1006.4
20210624154504 79 20 0.0 2.0 0.00 0.15 0.15 71 1006.0
20210624151503 77 46 0.0 3.0 0.00 0.15 0.15 79 1005.5
20210624143008 74 78 0.0 3.0 0.01 0.15 0.15 84 1005.0
20210624140010 70 344 0.0 1.0 0.00 0.14 0.14 92 1004.1
20210624134507 68 360 0.0 0.0 0.00 0.14 0.14 93 1003.7
20210624131504 66 153 1.0 2.0 0.00 0.14 0.14 94 1003.7
20210624123016 65 143 0.0 0.0 0.05 0.14 0.14 95 1004.3
20210624120020 64 100 0.0 0.0 0.12 0.14 0.14 94 1005.4
20210624114531 65 140 0.0 3.0 0.12 0.13 0.13 93 1005.8
20210624110009 66 189 2.0 11.0 0.02 0.02 0.02 91 1006.3
20210624104508 67 290 1.0 8.0 0.01 0.02 0.01 88 1005.4
20210624103004 68 246 1.0 7.0 0.00 0.01 0.00 86 1004.9
20210624100013 69 163 0.0 2.0 0.00 0.01 0.00 83 1004.4
20210624094504 69 64 1.0 4.0 0.00 0.01 0.00 81 1004.1
20210624091534 69 338 1.0 7.0 0.00 0.01 0.00 81 1003.5
20210624083002 69 296 1.0 7.0 0.00 0.01 0.00 80 1003.7
20210624074513 69 115 0.0 8.0 0.00 0.01 0.00 80 1004.5
20210624071503 69 229 2.0 11.0 0.00 0.01 0.00 79 1004.2
20210624061505 70 269 2.0 8.0 0.00 0.02 0.00 78 1004.8
20210624053003 69 182 3.0 14.0 0.00 0.02 0.00 78 1005.0
20210624050004 69 174 3.0 10.0 0.00 0.02 0.00 77 1005.0
20210624044507 70 157 3.0 12.0 0.00 0.02 0.00 77 1004.9
20210624033004 70 176 1.0 13.0 0.00 0.02 0.02 74 1005.4
20210624030020 71 142 1.0 7.0 0.00 0.02 0.02 71 1005.2
20210624024504 71 208 4.0 18.0 0.00 0.02 0.02 69 1005.1
20210624021506 72 288 4.0 19.0 0.00 0.02 0.02 65 1004.8
20210624013009 73 246 1.0 9.0 0.00 0.02 0.02 61 1005.4
20210624010026 75 188 1.0 14.0 0.00 0.02 0.02 57 1005.3
20210624004503 75 186 2.0 6.0 0.00 0.02 0.02 55 1005.5
20210624001506 76 192 0.0 6.0 0.00 0.02 0.02 52 1005.7
20210623233006 77 216 1.0 8.0 0.00 0.02 0.02 48 1006.2
20210623230004 78 185 2.0 11.0 0.00 0.02 0.02 47 1006.4
20210623224502 78 196 1.0 10.0 0.00 0.02 0.02 47 1006.6
20210623221505 79 232 3.0 9.0 0.00 0.02 0.02 44 1006.9
20210623213015 79 221 1.0 10.0 0.00 0.02 0.02 44 1007.1
20210623211514 79 207 1.0 10.0 0.00 0.02 0.02 43 1007.4